My Meet Scores
Kara Auchstetter, Flipstar Gymnastics Academy - MyMeetScores.com
Top100 | Top Teams | Upcoming Meets | Completed Meets | Latest | Add Scores | Help| Support | Bookmark and Share

Kara Auchstetter, Flipstar Gymnastics Academy
Personal Bests
LevelVault BarsBeamFloorAA
9.3008.875 8.7259.25036.150
48.6508.950 6.7508.35032.700
58.9008.850 9.3009.22536.225
69.3508.850 9.5508.90035.550
79.2008.900 9.0509.15035.875
88.6258.325 8.9009.12534.125
Meet Scores
Date Meet Team Session Level Division Vault Bars Beam Floor AA
2014-04-25 2014 Region 5 Level 8 Championships Flipstar Gymnastics Academy 8 Sr D 8.525 46 7.900 47 8.850 32 8.825 50 34.100 47
2014-03-21 2014 Illinois Level 8, 9, 10 State Championships Flipstar Gymnastics Academy 8 Sr.C 8.625 22 8.050 23 8.600 27 8.850 29 34.125 26
2014-02-21 EGGS Invite Flipstar Gymnastics Academy 5 8 14+yrs 8.300 11T 8.050 7T 8.900 4 8.025 14 33.275 8
2013-11-08 2013 Illinois Judges Cup Flipstar Gymnastics Academy P1 8 14 yrs. 8.125 5 7.700 3 8.450 4 8.925 1 33.200 4
2013-03-22 2013 Illinois Level 8, 9, 10 State Championships Flipstar Gymnastics Academy All 8 Sr.B 8.300 27 8.100 26 8.375 24 8.600 29 33.375 29
2013-02-23 EGGS Invite Flipstar Gymnastics Academy 8 13+ 8.500 7 8.325 4 8.400 6 8.875 6 34.100 5
2013-02-16 BIG Dream Classic 2013 Flipstar Gymnastics Academy 3B 8 Senior B 8.350 19T 7.900 14 7.350 18 9.125 9T 32.725 13
2013-02-08 IGI Chicago Style Gymnastics Meet Flipstar Gymnastics Academy 132 7 13 & Over 9.200 19T 8.700 13 8.825 8 9.000 16* 35.725 9T
2013-01-12 St. Jude Benefit Meet Flipstar Gymnastics Academy GymB 7 13+ 9.050 8 8.250 10 7.850 21 8.625 23 33.775 11
2012-11-30 Ultimate Wish Classic 2012 Flipstar Gymnastics Academy 7 L7 Sr B S1 9.050 10 8.250 8 7.850 13 8.600 13 33.750 9
2012-11-09 2012 Illinois Judges Cup Flipstar Gymnastics Academy 3A 7 13+ 8.850 12 7.800 16 8.050 9 8.725 9 33.425 12
2012-03-16 2012 Illinois Level 6, 7 State Championships Flipstar Gymnastics Academy 9 7 Sr.A 9.100 17T 8.875 12 8.900 6T 8.650 23 35.525 12
2012-02-25 Midwest Open 2012 Flipstar Gymnastics Academy 7B 7 Lvl 7: 13 & up 9.000 14 8.800 8 9.000 5 9.075 11 35.875 9
2012-02-18 BIG Dream Classic 2012 Flipstar Gymnastics Academy 3B 7 Senior B 8.800 13 8.125 10 7.975 11 9.150 8 34.050 12
2012-02-10 IGI Chicago Style Gymnastics Flipstar Gymnastics Academy 133 7 13 & Over 8.900 16T 8.900 4 9.050 8 9.000 12T 35.850 6
2012-01-28 2012 King Arthur Invitational Flipstar Gymnastics Academy 3 7 Sr.A 8.800 10 8.750 6 8.550 13 8.875 11 34.975 8
2011-12-02 2011 Ultimate Wish Classic Flipstar Gymnastics Academy 3 7 Sr.B 8.950 14 8.550 8 8.775 8 8.800 12 35.075 14
2011-03-25 2011 Illinois Level 6-9-10 State Meet Flipstar Gymnastics Academy 1 6 Sr.A 9.350 5 8.775 5 8.650 22 8.475 20 35.250 13
2011-03-04 Flip'r Meet Flipstar Gymnastics Academy 5 6 12+ 8.250 15 8.500 10 8.800 5 8.450 8 34.000 9
2011-02-26 Midwest Open Flipstar Gymnastics Academy 7A 6 12 & up 8.500 8 8.600 2 9.550 2 8.900 5 35.550 3
2011-02-19 Big Dream Classic Flipstar Gymnastics Academy 6 12+ yrs 8.850 12T 8.525 5 8.550 13 8.650 7T 34.575 9
2011-02-11 IGI Chicago Style Gymnastics Meet Flipstar Gymnastics Academy 512 6 12 & Over 8.450 28 8.225 20T 8.725 13 8.725 9 34.125 16
2010-12-03 Make a Wish Flipstar Gymnastics Academy 11 6 12+ 8.725 11 8.850 3 9.025 11 8.500 11 35.100 7
2010-03-13 2010 Illinois Level 6 and 7 State Championships Flipstar Gymnastics Academy 6 Jr.C 9.025 12 8.350 17 8.200 28 8.725 17 34.300 22
2010-02-27 Midwest Open Flipstar Gymnastics Academy 4B 6 11 8.800 8 7.550 8 8.200 9 8.700 8 33.250 9
2010-02-20 BIG Dream Classic 2010 Flipstar Gymnastics Academy 4A 6 11 8.800 7 7.500 19 8.900 10 8.675 11 33.875 12
2010-02-12 IGI Chicago Style Gymnastics Meet Flipstar Gymnastics Academy 533 6 11 Yr Olds 8.950 10 7.750 16 8.875 11 8.800 7T 34.375 10
2010-01-30 The King Arthur Invitational 2010 Flipstar Gymnastics Academy 6 JrB 8.600 12 7.600 16 8.750 11 8.300 15 33.250 16
2010-01-22 Bravo Classic 2010 Flipstar Gymnastics Academy 1B 6 11 8.475 9 7.500 19 8.525 15 8.400 12 32.900 16
2009-12-04 Ultimate Wish Classic Flipstar Gymnastics Academy 5 6 Ch7-11 8.500 41 7.400 42 7.550 42 8.500 30T 31.950 42
2009-11-13 2009 North Judges Cup Flipstar Gymnastics Academy 7A 6 11 8.525 10 7.800 11 8.400 12 8.175 12 32.900 11
2009-04-03 2009 Illinois Level 5 State Championships Gym Kinetics Sports Complex 5 5 JrB 8.475 22 8.800 15 8.875 12 9.000 14 35.150 14
2009-02-13 For Love or Money Gym Kinetics Sports Complex LoveGym 5 10 8.900 33T 8.800 37T 9.300 15T 9.225 20T 36.225 26
2009-01-17 St. Jude Benefit Meet Gym Kinetics Sports Complex 2 5 Lvl5:10-11 8.550 7 8.850 9 8.900 9 8.825 9 35.125 9
2008-12-13 St Nick Invite Gym Kinetics Sports Complex 6 5 All 8.250 42 7.400 66 8.675 30 8.825 20 33.150 45
2008-11-22 Thanksgiving Classic Gym Kinetics Sports Complex 5 5 Jr/Sr 10+ 8.300 15 8.225 10T 8.400 9T 8.150 16T 33.075 13
2008-11-15 Thanks To You Co~Ed Classic Gym Kinetics Sports Complex 3 5 10yrs 8.150 7 8.600 6 9.025 2 8.250 10 34.025 2
2008-02-09 For Love or Money 2008 Gym Kinetics Sports Complex LoveGym 5 9 8.350 62 6.950 61 8.275 47T 8.550 57 32.125 63
2008-02-09 For Love or Money 2008 Gym Kinetics Sports Complex MoneyGym 5 9 0.000 1T 0.000 1T 0.000 1T 0.000 1T 0.000 1T
2007-03-11 Aerial Midwest Open 2007 Flipstar Gymnastics Academy 4 8 8.650 17 8.950 3 6.750 19 8.350 12 32.700 15

www.lazysuits.com